sensor_id;sensor_type;location;lat;lon;timestamp;pressure;altitude;pressure_sealevel;temperature;humidity
8286;BME280;4181;43.416;24.598;2024-01-15T00:02:11;99575.84;;;3.43;100.00
8286;BME280;4181;43.416;24.598;2024-01-15T00:04:40;99580.47;;;3.36;100.00
8286;BME280;4181;43.416;24.598;2024-01-15T00:07:06;99563.44;;;3.36;100.00
8286;BME280;4181;43.416;24.598;2024-01-15T00:09:33;99569.84;;;3.41;100.00
8286;BME280;4181;43.416;24.598;2024-01-15T00:11:59;99568.00;;;3.42;100.00
8286;BME280;4181;43.416;24.598;2024-01-15T00:14:25;99559.06;;;3.41;100.00
8286;BME280;4181;43.416;24.598;2024-01-15T00:16:50;99579.97;;;3.46;100.00
8286;BME280;4181;43.416;24.598;2024-01-15T00:19:17;99580.19;;;3.44;100.00
8286;BME280;4181;43.416;24.598;2024-01-15T00:21:43;99566.88;;;3.49;100.00
8286;BME280;4181;43.416;24.598;2024-01-15T00:24:09;99567.16;;;3.41;100.00
8286;BME280;4181;43.416;24.598;2024-01-15T00:26:34;99558.22;;;3.41;100.00
8286;BME280;4181;43.416;24.598;2024-01-15T00:29:00;99564.28;;;3.36;100.00
8286;BME280;4181;43.416;24.598;2024-01-15T00:31:25;99565.97;;;3.31;100.00
8286;BME280;4181;43.416;24.598;2024-01-15T00:33:51;99568.69;;;3.31;100.00
8286;BME280;4181;43.416;24.598;2024-01-15T00:36:17;99558.22;;;3.16;100.00
8286;BME280;4181;43.416;24.598;2024-01-15T00:38:44;99537.94;;;3.07;100.00
8286;BME280;4181;43.416;24.598;2024-01-15T00:41:09;99549.28;;;3.16;100.00
8286;BME280;4181;43.416;24.598;2024-01-15T00:43:35;99552.38;;;3.19;100.00
8286;BME280;4181;43.416;24.598;2024-01-15T00:46:04;99535.75;;;3.22;100.00
8286;BME280;4181;43.416;24.598;2024-01-15T00:48:29;99544.75;;;3.16;100.00
8286;BME280;4181;43.416;24.598;2024-01-15T00:50:55;99552.66;;;3.11;100.00
8286;BME280;4181;43.416;24.598;2024-01-15T00:53:20;99545.84;;;3.02;100.00
8286;BME280;4181;43.416;24.598;2024-01-15T00:55:48;99540.63;;;3.07;100.00
8286;BME280;4181;43.416;24.598;2024-01-15T00:58:14;99531.75;;;3.07;100.00
8286;BME280;4181;43.416;24.598;2024-01-15T01:00:39;99525.97;;;3.03;100.00
8286;BME280;4181;43.416;24.598;2024-01-15T01:03:04;99516.38;;;3.07;100.00
8286;BME280;4181;43.416;24.598;2024-01-15T01:05:30;99513.50;;;3.09;100.00
8286;BME280;4181;43.416;24.598;2024-01-15T01:07:55;99517.16;;;3.14;100.00
8286;BME280;4181;43.416;24.598;2024-01-15T01:10:21;99520.94;;;3.13;100.00
8286;BME280;4181;43.416;24.598;2024-01-15T01:12:46;99500.72;;;3.22;100.00
8286;BME280;4181;43.416;24.598;2024-01-15T01:15:11;99499.38;;;3.13;100.00
8286;BME280;4181;43.416;24.598;2024-01-15T01:17:37;99521.53;;;3.15;100.00
8286;BME280;4181;43.416;24.598;2024-01-15T01:20:03;99519.19;;;3.25;100.00
8286;BME280;4181;43.416;24.598;2024-01-15T01:22:31;99514.81;;;3.24;100.00
8286;BME280;4181;43.416;24.598;2024-01-15T01:24:56;99508.44;;;3.19;100.00
8286;BME280;4181;43.416;24.598;2024-01-15T01:27:22;99505.38;;;3.15;100.00
8286;BME280;4181;43.416;24.598;2024-01-15T01:29:47;99511.94;;;3.19;100.00
8286;BME280;4181;43.416;24.598;2024-01-15T01:32:13;99510.59;;;3.10;100.00
8286;BME280;4181;43.416;24.598;2024-01-15T01:34:41;99506.41;;;3.14;100.00
8286;BME280;4181;43.416;24.598;2024-01-15T01:37:13;99505.66;;;3.01;100.00
8286;BME280;4181;43.416;24.598;2024-01-15T01:39:42;99503.06;;;2.88;100.00
8286;BME280;4181;43.416;24.598;2024-01-15T01:42:07;99519.59;;;2.60;100.00
8286;BME280;4181;43.416;24.598;2024-01-15T01:44:33;99509.19;;;2.70;100.00
8286;BME280;4181;43.416;24.598;2024-01-15T01:46:59;99516.69;;;2.62;100.00
8286;BME280;4181;43.416;24.598;2024-01-15T01:49:26;99508.28;;;2.45;100.00
8286;BME280;4181;43.416;24.598;2024-01-15T01:51:52;99503.75;;;2.39;100.00
8286;BME280;4181;43.416;24.598;2024-01-15T01:54:19;99501.84;;;2.46;100.00
8286;BME280;4181;43.416;24.598;2024-01-15T01:56:47;99496.41;;;2.59;100.00
8286;BME280;4181;43.416;24.598;2024-01-15T01:59:13;99505.41;;;2.78;100.00
8286;BME280;4181;43.416;24.598;2024-01-15T02:01:39;99501.78;;;2.97;100.00
8286;BME280;4181;43.416;24.598;2024-01-15T02:04:05;99480.94;;;3.10;100.00
8286;BME280;4181;43.416;24.598;2024-01-15T02:06:30;99478.31;;;3.28;100.00
8286;BME280;4181;43.416;24.598;2024-01-15T02:08:56;99485.09;;;3.31;100.00
8286;BME280;4181;43.416;24.598;2024-01-15T02:11:21;99475.59;;;3.28;100.00
8286;BME280;4181;43.416;24.598;2024-01-15T02:13:47;99484.53;;;2.98;100.00
8286;BME280;4181;43.416;24.598;2024-01-15T02:16:13;99471.56;;;2.88;100.00
8286;BME280;4181;43.416;24.598;2024-01-15T02:18:42;99481.38;;;2.76;100.00
8286;BME280;4181;43.416;24.598;2024-01-15T02:21:09;99481.47;;;2.63;100.00
8286;BME280;4181;43.416;24.598;2024-01-15T02:23:34;99480.13;;;2.41;100.00
8286;BME280;4181;43.416;24.598;2024-01-15T02:26:01;99472.94;;;2.35;100.00
8286;BME280;4181;43.416;24.598;2024-01-15T02:28:26;99492.75;;;2.47;100.00
8286;BME280;4181;43.416;24.598;2024-01-15T02:30:52;99479.47;;;2.52;100.00
8286;BME280;4181;43.416;24.598;2024-01-15T02:33:17;99472.94;;;2.66;100.00
8286;BME280;4181;43.416;24.598;2024-01-15T02:35:43;99475.22;;;2.69;100.00
8286;BME280;4181;43.416;24.598;2024-01-15T02:38:08;99460.31;;;2.67;100.00
8286;BME280;4181;43.416;24.598;2024-01-15T02:40:34;99459.22;;;2.43;100.00
8286;BME280;4181;43.416;24.598;2024-01-15T02:43:00;99463.69;;;2.55;100.00
8286;BME280;4181;43.416;24.598;2024-01-15T02:45:25;99453.84;;;2.74;100.00
8286;BME280;4181;43.416;24.598;2024-01-15T02:47:51;99453.38;;;2.84;100.00
8286;BME280;4181;43.416;24.598;2024-01-15T02:50:16;99451.72;;;2.83;100.00
8286;BME280;4181;43.416;24.598;2024-01-15T02:52:42;99443.78;;;2.88;100.00
8286;BME280;4181;43.416;24.598;2024-01-15T02:55:08;99433.59;;;2.96;100.00
8286;BME280;4181;43.416;24.598;2024-01-15T02:57:34;99434.41;;;2.97;100.00
8286;BME280;4181;43.416;24.598;2024-01-15T02:59:59;99437.72;;;2.99;100.00
8286;BME280;4181;43.416;24.598;2024-01-15T03:02:24;99422.06;;;3.07;100.00
8286;BME280;4181;43.416;24.598;2024-01-15T03:04:50;99435.13;;;3.10;100.00
8286;BME280;4181;43.416;24.598;2024-01-15T03:07:16;99422.41;;;3.17;100.00
8286;BME280;4181;43.416;24.598;2024-01-15T03:09:41;99410.53;;;3.25;100.00
8286;BME280;4181;43.416;24.598;2024-01-15T03:12:07;99423.03;;;3.37;100.00
8286;BME280;4181;43.416;24.598;2024-01-15T03:14:32;99415.72;;;3.44;100.00
8286;BME280;4181;43.416;24.598;2024-01-15T03:16:58;99405.38;;;3.41;100.00
8286;BME280;4181;43.416;24.598;2024-01-15T03:19:23;99408.97;;;3.35;100.00
8286;BME280;4181;43.416;24.598;2024-01-15T03:21:49;99408.97;;;3.35;100.00
8286;BME280;4181;43.416;24.598;2024-01-15T03:24:14;99395.63;;;3.22;100.00
8286;BME280;4181;43.416;24.598;2024-01-15T03:26:40;99401.16;;;3.27;100.00
8286;BME280;4181;43.416;24.598;2024-01-15T03:29:05;99402.81;;;3.28;100.00
8286;BME280;4181;43.416;24.598;2024-01-15T03:31:31;99396.91;;;3.38;100.00
8286;BME280;4181;43.416;24.598;2024-01-15T03:33:57;99390.44;;;3.45;100.00
8286;BME280;4181;43.416;24.598;2024-01-15T03:36:22;99387.34;;;3.60;100.00
8286;BME280;4181;43.416;24.598;2024-01-15T03:38:48;99385.78;;;3.70;100.00
8286;BME280;4181;43.416;24.598;2024-01-15T03:41:13;99385.56;;;3.72;100.00
8286;BME280;4181;43.416;24.598;2024-01-15T03:43:39;99384.13;;;3.69;100.00
8286;BME280;4181;43.416;24.598;2024-01-15T03:46:05;99385.56;;;3.72;100.00
8286;BME280;4181;43.416;24.598;2024-01-15T03:48:30;99377.53;;;3.65;100.00
8286;BME280;4181;43.416;24.598;2024-01-15T03:50:56;99385.63;;;3.65;100.00
8286;BME280;4181;43.416;24.598;2024-01-15T03:53:21;99379.88;;;3.62;100.00
8286;BME280;4181;43.416;24.598;2024-01-15T03:55:47;99386.72;;;3.76;100.00
8286;BME280;4181;43.416;24.598;2024-01-15T03:58:12;99372.44;;;3.75;100.00
8286;BME280;4181;43.416;24.598;2024-01-15T04:00:40;99380.47;;;3.82;100.00
8286;BME280;4181;43.416;24.598;2024-01-15T04:03:05;99375.72;;;3.77;100.00
8286;BME280;4181;43.416;24.598;2024-01-15T04:05:31;99368.38;;;3.84;100.00
8286;BME280;4181;43.416;24.598;2024-01-15T04:07:56;99368.84;;;3.81;100.00
8286;BME280;4181;43.416;24.598;2024-01-15T04:10:22;99370.94;;;3.79;100.00
8286;BME280;4181;43.416;24.598;2024-01-15T04:12:47;99380.88;;;3.79;100.00
8286;BME280;4181;43.416;24.598;2024-01-15T04:15:13;99374.22;;;3.81;100.00
8286;BME280;4181;43.416;24.598;2024-01-15T04:17:38;99378.00;;;3.80;100.00
8286;BME280;4181;43.416;24.598;2024-01-15T04:20:04;99375.88;;;3.82;100.00
8286;BME280;4181;43.416;24.598;2024-01-15T04:22:30;99376.00;;;3.87;100.00
8286;BME280;4181;43.416;24.598;2024-01-15T04:24:56;99367.03;;;3.94;100.00
8286;BME280;4181;43.416;24.598;2024-01-15T04:27:21;99366.09;;;4.00;100.00
8286;BME280;4181;43.416;24.598;2024-01-15T04:29:47;99355.31;;;4.00;100.00
8286;BME280;4181;43.416;24.598;2024-01-15T04:32:12;99363.09;;;4.08;100.00
8286;BME280;4181;43.416;24.598;2024-01-15T04:34:38;99365.13;;;4.12;100.00
8286;BME280;4181;43.416;24.598;2024-01-15T04:37:03;99358.94;;;4.23;100.00
8286;BME280;4181;43.416;24.598;2024-01-15T04:39:29;99352.56;;;4.18;100.00
8286;BME280;4181;43.416;24.598;2024-01-15T04:41:54;99340.31;;;4.04;100.00
8286;BME280;4181;43.416;24.598;2024-01-15T04:44:20;99344.50;;;4.00;100.00
8286;BME280;4181;43.416;24.598;2024-01-15T04:46:46;99340.84;;;3.94;100.00
8286;BME280;4181;43.416;24.598;2024-01-15T04:49:12;99334.19;;;3.97;100.00
8286;BME280;4181;43.416;24.598;2024-01-15T04:51:37;99344.75;;;3.98;100.00
8286;BME280;4181;43.416;24.598;2024-01-15T04:54:03;99340.84;;;3.94;100.00
8286;BME280;4181;43.416;24.598;2024-01-15T04:56:28;99338.84;;;3.89;100.00
8286;BME280;4181;43.416;24.598;2024-01-15T04:58:54;99345.97;;;3.84;100.00
8286;BME280;4181;43.416;24.598;2024-01-15T05:01:19;99342.47;;;3.83;100.00
8286;BME280;4181;43.416;24.598;2024-01-15T05:03:45;99332.03;;;3.87;100.00
8286;BME280;4181;43.416;24.598;2024-01-15T05:06:10;99336.91;;;3.78;100.00
8286;BME280;4181;43.416;24.598;2024-01-15T05:08:36;99332.13;;;3.62;100.00
8286;BME280;4181;43.416;24.598;2024-01-15T05:11:01;99329.22;;;3.28;100.00
8286;BME280;4181;43.416;24.598;2024-01-15T05:13:27;99331.16;;;3.21;100.00
8286;BME280;4181;43.416;24.598;2024-01-15T05:15:53;99307.50;;;3.23;100.00
8286;BME280;4181;43.416;24.598;2024-01-15T05:18:18;99317.31;;;3.35;100.00
8286;BME280;4181;43.416;24.598;2024-01-15T05:20:44;99319.34;;;3.40;100.00
8286;BME280;4181;43.416;24.598;2024-01-15T05:23:09;99308.91;;;3.61;100.00
8286;BME280;4181;43.416;24.598;2024-01-15T05:25:35;99312.66;;;3.60;100.00
8286;BME280;4181;43.416;24.598;2024-01-15T05:28:01;99316.53;;;3.64;100.00
8286;BME280;4181;43.416;24.598;2024-01-15T05:30:26;99297.66;;;3.64;100.00
8286;BME280;4181;43.416;24.598;2024-01-15T05:32:51;99302.31;;;3.75;100.00
8286;BME280;4181;43.416;24.598;2024-01-15T05:35:17;99305.72;;;3.82;100.00
8286;BME280;4181;43.416;24.598;2024-01-15T05:37:44;99297.63;;;3.82;100.00
8286;BME280;4181;43.416;24.598;2024-01-15T05:40:13;99297.50;;;3.77;100.00
8286;BME280;4181;43.416;24.598;2024-01-15T05:42:39;99301.88;;;3.60;100.00
8286;BME280;4181;43.416;24.598;2024-01-15T05:45:05;99285.63;;;3.49;100.00
8286;BME280;4181;43.416;24.598;2024-01-15T05:47:31;99300.34;;;3.64;100.00
8286;BME280;4181;43.416;24.598;2024-01-15T05:49:57;99290.53;;;3.70;100.00
8286;BME280;4181;43.416;24.598;2024-01-15T05:52:23;99284.47;;;3.74;100.00
8286;BME280;4181;43.416;24.598;2024-01-15T05:54:49;99299.91;;;3.85;100.00
8286;BME280;4181;43.416;24.598;2024-01-15T05:57:15;99293.81;;;3.90;100.00
8286;BME280;4181;43.416;24.598;2024-01-15T05:59:42;99283.00;;;3.90;100.00
8286;BME280;4181;43.416;24.598;2024-01-15T06:02:07;99278.50;;;3.84;100.00
8286;BME280;4181;43.416;24.598;2024-01-15T06:04:33;99266.31;;;3.81;100.00
8286;BME280;4181;43.416;24.598;2024-01-15T06:06:58;99267.28;;;3.87;100.00
8286;BME280;4181;43.416;24.598;2024-01-15T06:09:24;99261.53;;;3.83;100.00
8286;BME280;4181;43.416;24.598;2024-01-15T06:11:49;99271.00;;;3.86;100.00
8286;BME280;4181;43.416;24.598;2024-01-15T06:14:15;99276.81;;;3.71;100.00
8286;BME280;4181;43.416;24.598;2024-01-15T06:16:40;99275.91;;;3.77;100.00
8286;BME280;4181;43.416;24.598;2024-01-15T06:19:05;99279.44;;;3.78;100.00
8286;BME280;4181;43.416;24.598;2024-01-15T06:21:31;99279.19;;;3.79;100.00
8286;BME280;4181;43.416;24.598;2024-01-15T06:23:56;99279.66;;;3.76;100.00
8286;BME280;4181;43.416;24.598;2024-01-15T06:26:22;99286.59;;;3.84;100.00
8286;BME280;4181;43.416;24.598;2024-01-15T06:28:48;99279.34;;;3.84;100.00
8286;BME280;4181;43.416;24.598;2024-01-15T06:31:14;99280.59;;;4.00;100.00
8286;BME280;4181;43.416;24.598;2024-01-15T06:33:39;99271.06;;;3.98;100.00
8286;BME280;4181;43.416;24.598;2024-01-15T06:36:05;99264.50;;;3.94;100.00
8286;BME280;4181;43.416;24.598;2024-01-15T06:38:31;99264.75;;;4.04;100.00
8286;BME280;4181;43.416;24.598;2024-01-15T06:40:56;99267.63;;;3.90;100.00
8286;BME280;4181;43.416;24.598;2024-01-15T06:43:21;99268.53;;;3.84;100.00
8286;BME280;4181;43.416;24.598;2024-01-15T06:45:47;99269.09;;;4.05;100.00
8286;BME280;4181;43.416;24.598;2024-01-15T06:48:12;99269.56;;;4.02;100.00
8286;BME280;4181;43.416;24.598;2024-01-15T06:50:42;99276.19;;;4.17;100.00
8286;BME280;4181;43.416;24.598;2024-01-15T06:53:16;99270.31;;;4.20;100.00
8286;BME280;4181;43.416;24.598;2024-01-15T06:55:41;99276.19;;;4.29;100.00
8286;BME280;4181;43.416;24.598;2024-01-15T06:58:07;99265.78;;;4.67;100.00
8286;BME280;4181;43.416;24.598;2024-01-15T07:00:32;99276.59;;;4.90;100.00
8286;BME280;4181;43.416;24.598;2024-01-15T07:02:58;99277.88;;;5.10;100.00
8286;BME280;4181;43.416;24.598;2024-01-15T07:05:24;99274.44;;;5.27;100.00
8286;BME280;4181;43.416;24.598;2024-01-15T07:07:49;99271.06;;;5.59;100.00
8286;BME280;4181;43.416;24.598;2024-01-15T07:10:15;99253.75;;;6.00;100.00
8286;BME280;4181;43.416;24.598;2024-01-15T07:12:42;99254.22;;;6.41;100.00
8286;BME280;4181;43.416;24.598;2024-01-15T07:15:08;99246.78;;;6.87;100.00
8286;BME280;4181;43.416;24.598;2024-01-15T07:17:34;99244.13;;;7.51;100.00
8286;BME280;4181;43.416;24.598;2024-01-15T07:19:59;99237.97;;;8.04;100.00
8286;BME280;4181;43.416;24.598;2024-01-15T07:22:25;99241.91;;;8.50;100.00
8286;BME280;4181;43.416;24.598;2024-01-15T07:24:50;99246.06;;;8.94;100.00
8286;BME280;4181;43.416;24.598;2024-01-15T07:27:16;99239.41;;;9.22;100.00
8286;BME280;4181;43.416;24.598;2024-01-15T07:29:41;99225.63;;;9.43;100.00
8286;BME280;4181;43.416;24.598;2024-01-15T07:32:08;99225.44;;;9.60;100.00
8286;BME280;4181;43.416;24.598;2024-01-15T07:34:33;99232.59;;;9.81;100.00
8286;BME280;4181;43.416;24.598;2024-01-15T07:36:59;99208.66;;;9.88;100.00
8286;BME280;4181;43.416;24.598;2024-01-15T07:39:24;99207.03;;;10.07;100.00
8286;BME280;4181;43.416;24.598;2024-01-15T07:41:53;99212.28;;;10.34;100.00
8286;BME280;4181;43.416;24.598;2024-01-15T07:44:19;99200.00;;;10.56;100.00
8286;BME280;4181;43.416;24.598;2024-01-15T07:46:45;99193.16;;;10.74;100.00
8286;BME280;4181;43.416;24.598;2024-01-15T07:49:11;99200.78;;;10.82;100.00
8286;BME280;4181;43.416;24.598;2024-01-15T07:51:36;99191.25;;;10.89;100.00
8286;BME280;4181;43.416;24.598;2024-01-15T07:54:02;99205.72;;;10.75;100.00
8286;BME280;4181;43.416;24.598;2024-01-15T07:56:27;99202.47;;;10.53;100.00
8286;BME280;4181;43.416;24.598;2024-01-15T07:58:53;99205.75;;;10.19;100.00
8286;BME280;4181;43.416;24.598;2024-01-15T08:01:19;99202.38;;;9.92;100.00
8286;BME280;4181;43.416;24.598;2024-01-15T08:03:44;99205.63;;;9.74;100.00
8286;BME280;4181;43.416;24.598;2024-01-15T08:06:10;99187.31;;;9.60;100.00
8286;BME280;4181;43.416;24.598;2024-01-15T08:08:37;99195.47;;;9.60;100.00
8286;BME280;4181;43.416;24.598;2024-01-15T08:11:03;99187.28;;;9.55;100.00
8286;BME280;4181;43.416;24.598;2024-01-15T08:13:28;99200.38;;;9.48;100.00
8286;BME280;4181;43.416;24.598;2024-01-15T08:15:54;99178.53;;;9.38;100.00
8286;BME280;4181;43.416;24.598;2024-01-15T08:18:19;99196.53;;;9.49;100.00
8286;BME280;4181;43.416;24.598;2024-01-15T08:20:47;99198.16;;;9.50;100.00
8286;BME280;4181;43.416;24.598;2024-01-15T08:23:12;99202.00;;;9.54;100.00
8286;BME280;4181;43.416;24.598;2024-01-15T08:25:38;99186.22;;;9.56;100.00
8286;BME280;4181;43.416;24.598;2024-01-15T08:28:03;99200.44;;;9.68;100.00
8286;BME280;4181;43.416;24.598;2024-01-15T08:30:29;99195.50;;;9.65;100.00
8286;BME280;4181;43.416;24.598;2024-01-15T08:32:55;99194.16;;;9.62;100.00
8286;BME280;4181;43.416;24.598;2024-01-15T08:35:20;99189.78;;;9.71;100.00
8286;BME280;4181;43.416;24.598;2024-01-15T08:37:49;99193.91;;;9.74;100.00
8286;BME280;4181;43.416;24.598;2024-01-15T08:40:15;99178.66;;;9.78;100.00
8286;BME280;4181;43.416;24.598;2024-01-15T08:42:41;99174.56;;;9.75;100.00
8286;BME280;4181;43.416;24.598;2024-01-15T08:45:07;99179.97;;;9.65;100.00
8286;BME280;4181;43.416;24.598;2024-01-15T08:47:32;99172.91;;;9.59;100.00
8286;BME280;4181;43.416;24.598;2024-01-15T08:49:58;99181.34;;;9.63;100.00
8286;BME280;4181;43.416;24.598;2024-01-15T08:52:24;99180.75;;;9.51;100.00
8286;BME280;4181;43.416;24.598;2024-01-15T08:54:49;99170.72;;;9.56;100.00
8286;BME280;4181;43.416;24.598;2024-01-15T08:57:15;99169.59;;;9.52;100.00
8286;BME280;4181;43.416;24.598;2024-01-15T08:59:41;99172.06;;;9.54;100.00
8286;BME280;4181;43.416;24.598;2024-01-15T09:02:06;99158.97;;;9.51;100.00
8286;BME280;4181;43.416;24.598;2024-01-15T09:04:33;99147.81;;;9.47;100.00
8286;BME280;4181;43.416;24.598;2024-01-15T09:06:58;99154.34;;;9.41;100.00
8286;BME280;4181;43.416;24.598;2024-01-15T09:09:24;99137.97;;;9.31;100.00
8286;BME280;4181;43.416;24.598;2024-01-15T09:11:50;99121.31;;;9.18;100.00
8286;BME280;4181;43.416;24.598;2024-01-15T09:14:15;99123.19;;;9.12;100.00
8286;BME280;4181;43.416;24.598;2024-01-15T09:16:41;99106.59;;;9.14;100.00
8286;BME280;4181;43.416;24.598;2024-01-15T09:19:06;99118.59;;;9.18;100.00
8286;BME280;4181;43.416;24.598;2024-01-15T09:21:32;99105.53;;;9.30;100.00
8286;BME280;4181;43.416;24.598;2024-01-15T09:23:57;99102.81;;;9.25;100.00
8286;BME280;4181;43.416;24.598;2024-01-15T09:26:23;99085.41;;;9.21;100.00
8286;BME280;4181;43.416;24.598;2024-01-15T09:28:49;99088.97;;;9.26;100.00
8286;BME280;4181;43.416;24.598;2024-01-15T09:31:14;99082.97;;;9.29;100.00
8286;BME280;4181;43.416;24.598;2024-01-15T09:33:42;99085.19;;;9.47;100.00
8286;BME280;4181;43.416;24.598;2024-01-15T09:36:08;99069.16;;;9.71;100.00
8286;BME280;4181;43.416;24.598;2024-01-15T09:38:34;99062.63;;;9.87;100.00
8286;BME280;4181;43.416;24.598;2024-01-15T09:41:00;99048.44;;;10.00;100.00
8286;BME280;4181;43.416;24.598;2024-01-15T09:43:26;99043.53;;;10.02;100.00
8286;BME280;4181;43.416;24.598;2024-01-15T09:45:52;99045.75;;;10.10;100.00
8286;BME280;4181;43.416;24.598;2024-01-15T09:48:18;99043.81;;;10.20;100.00
8286;BME280;4181;43.416;24.598;2024-01-15T09:50:44;99030.41;;;10.44;100.00
8286;BME280;4181;43.416;24.598;2024-01-15T09:53:09;99017.16;;;10.86;100.00
8286;BME280;4181;43.416;24.598;2024-01-15T09:55:36;99014.13;;;11.41;100.00
8286;BME280;4181;43.416;24.598;2024-01-15T09:58:03;98991.97;;;11.77;100.00
8286;BME280;4181;43.416;24.598;2024-01-15T10:00:29;98987.94;;;12.03;100.00
8286;BME280;4181;43.416;24.598;2024-01-15T10:02:58;98972.94;;;12.24;100.00
8286;BME280;4181;43.416;24.598;2024-01-15T10:05:26;98968.19;;;12.58;100.00
8286;BME280;4181;43.416;24.598;2024-01-15T10:07:53;98957.56;;;12.75;100.00
8286;BME280;4181;43.416;24.598;2024-01-15T10:10:18;98966.38;;;12.91;100.00
8286;BME280;4181;43.416;24.598;2024-01-15T10:12:44;98949.81;;;13.01;100.00
8286;BME280;4181;43.416;24.598;2024-01-15T10:15:10;98943.69;;;13.09;100.00
8286;BME280;4181;43.416;24.598;2024-01-15T10:17:38;98942.91;;;13.40;100.00
8286;BME280;4181;43.416;24.598;2024-01-15T10:20:10;98935.63;;;13.68;100.00
8286;BME280;4181;43.416;24.598;2024-01-15T10:22:40;98933.34;;;14.02;100.00
8286;BME280;4181;43.416;24.598;2024-01-15T10:25:06;98938.81;;;13.88;100.00
8286;BME280;4181;43.416;24.598;2024-01-15T10:27:35;98918.78;;;13.74;100.00
8286;BME280;4181;43.416;24.598;2024-01-15T10:30:01;98927.25;;;13.27;100.00
8286;BME280;4181;43.416;24.598;2024-01-15T10:32:27;98924.34;;;13.37;100.00
8286;BME280;4181;43.416;24.598;2024-01-15T10:34:53;98922.25;;;13.48;100.00
8286;BME280;4181;43.416;24.598;2024-01-15T10:37:19;98924.78;;;13.44;100.00
8286;BME280;4181;43.416;24.598;2024-01-15T10:39:46;98936.41;;;13.36;100.00
8286;BME280;4181;43.416;24.598;2024-01-15T10:42:12;98935.84;;;13.21;100.00
8286;BME280;4181;43.416;24.598;2024-01-15T10:44:37;98935.69;;;13.12;100.00
8286;BME280;4181;43.416;24.598;2024-01-15T10:47:04;98936.66;;;13.03;100.00
8286;BME280;4181;43.416;24.598;2024-01-15T10:49:29;98930.56;;;12.87;100.00
8286;BME280;4181;43.416;24.598;2024-01-15T10:51:56;98929.22;;;12.85;100.00
8286;BME280;4181;43.416;24.598;2024-01-15T10:54:22;98919.25;;;12.75;100.00
8286;BME280;4181;43.416;24.598;2024-01-15T10:56:50;98906.66;;;12.74;100.00
8286;BME280;4181;43.416;24.598;2024-01-15T10:59:16;98910.31;;;12.46;100.00
8286;BME280;4181;43.416;24.598;2024-01-15T11:01:45;98905.44;;;12.43;100.00
8286;BME280;4181;43.416;24.598;2024-01-15T11:04:12;98905.94;;;12.03;100.00
8286;BME280;4181;43.416;24.598;2024-01-15T11:06:45;98904.91;;;11.94;100.00
8286;BME280;4181;43.416;24.598;2024-01-15T11:09:12;98907.06;;;11.97;100.00
8286;BME280;4181;43.416;24.598;2024-01-15T11:11:44;98895.44;;;11.86;100.00
8286;BME280;4181;43.416;24.598;2024-01-15T11:14:09;98898.41;;;11.66;100.00
8286;BME280;4181;43.416;24.598;2024-01-15T11:17:01;98897.84;;;11.64;100.00
8286;BME280;4181;43.416;24.598;2024-01-15T11:19:35;98903.56;;;11.68;100.00
8286;BME280;4181;43.416;24.598;2024-01-15T11:22:02;98899.81;;;11.53;100.00
8286;BME280;4181;43.416;24.598;2024-01-15T11:24:40;98911.03;;;11.52;100.00
8286;BME280;4181;43.416;24.598;2024-01-15T11:27:09;98899.31;;;11.52;100.00
8286;BME280;4181;43.416;24.598;2024-01-15T11:29:37;98893.97;;;11.41;100.00
8286;BME280;4181;43.416;24.598;2024-01-15T11:32:07;98893.59;;;11.19;100.00
8286;BME280;4181;43.416;24.598;2024-01-15T11:34:58;98882.72;;;11.14;100.00
8286;BME280;4181;43.416;24.598;2024-01-15T11:37:27;98883.59;;;11.05;100.00
8286;BME280;4181;43.416;24.598;2024-01-15T11:39:54;98881.06;;;11.13;100.00
8286;BME280;4181;43.416;24.598;2024-01-15T11:42:23;98878.28;;;11.18;100.00
8286;BME280;4181;43.416;24.598;2024-01-15T11:44:49;98880.97;;;11.23;100.00
8286;BME280;4181;43.416;24.598;2024-01-15T11:47:14;98863.47;;;11.29;100.00
8286;BME280;4181;43.416;24.598;2024-01-15T11:52:17;98847.09;;;11.29;100.00
8286;BME280;4181;43.416;24.598;2024-01-15T11:55:01;98840.53;;;11.30;100.00
8286;BME280;4181;43.416;24.598;2024-01-15T11:57:50;98839.91;;;11.38;100.00
8286;BME280;4181;43.416;24.598;2024-01-15T12:00:16;98840.91;;;11.47;100.00
8286;BME280;4181;43.416;24.598;2024-01-15T12:02:44;98840.81;;;11.58;100.00
8286;BME280;4181;43.416;24.598;2024-01-15T12:05:11;98829.22;;;11.71;100.00
8286;BME280;4181;43.416;24.598;2024-01-15T12:07:39;98823.56;;;11.86;100.00
8286;BME280;4181;43.416;24.598;2024-01-15T12:10:08;98832.38;;;11.83;100.00
8286;BME280;4181;43.416;24.598;2024-01-15T12:15:07;98838.84;;;11.87;100.00
8286;BME280;4181;43.416;24.598;2024-01-15T12:17:34;98827.97;;;11.82;100.00
8286;BME280;4181;43.416;24.598;2024-01-15T12:20:00;98832.13;;;11.79;100.00
8286;BME280;4181;43.416;24.598;2024-01-15T12:22:25;98823.94;;;11.79;100.00
8286;BME280;4181;43.416;24.598;2024-01-15T12:24:53;98810.03;;;11.76;100.00
8286;BME280;4181;43.416;24.598;2024-01-15T12:27:20;98818.22;;;11.76;100.00
8286;BME280;4181;43.416;24.598;2024-01-15T12:29:46;98808.56;;;11.60;100.00
8286;BME280;4181;43.416;24.598;2024-01-15T12:32:12;98818.06;;;11.62;100.00
8286;BME280;4181;43.416;24.598;2024-01-15T12:34:37;98825.25;;;11.58;100.00
8286;BME280;4181;43.416;24.598;2024-01-15T12:37:03;98837.84;;;11.54;100.00
8286;BME280;4181;43.416;24.598;2024-01-15T12:39:29;98825.41;;;11.43;100.00
8286;BME280;4181;43.416;24.598;2024-01-15T12:41:54;98836.47;;;11.57;100.00
8286;BME280;4181;43.416;24.598;2024-01-15T12:44:20;98807.50;;;11.56;100.00
8286;BME280;4181;43.416;24.598;2024-01-15T12:46:46;98825.50;;;11.85;100.00
8286;BME280;4181;43.416;24.598;2024-01-15T12:49:13;98805.81;;;11.88;100.00
8286;BME280;4181;43.416;24.598;2024-01-15T12:51:38;98818.28;;;11.94;100.00
8286;BME280;4181;43.416;24.598;2024-01-15T12:54:04;98815.50;;;11.99;100.00
8286;BME280;4181;43.416;24.598;2024-01-15T12:56:30;98815.72;;;12.03;100.00
8286;BME280;4181;43.416;24.598;2024-01-15T12:58:55;98809.97;;;12.04;100.00
8286;BME280;4181;43.416;24.598;2024-01-15T13:01:21;98810.31;;;11.98;100.00
8286;BME280;4181;43.416;24.598;2024-01-15T13:03:47;98807.06;;;11.96;100.00
8286;BME280;4181;43.416;24.598;2024-01-15T13:06:12;98808.47;;;11.93;100.00
8286;BME280;4181;43.416;24.598;2024-01-15T13:08:38;98807.72;;;11.88;100.00